Time;durP1;ratioP1;P1;durP2;ratioP2;P2;SDS_P1;SDS_P2;PMS_P1;PMS_P2;Temp;Humidity;BMP_temperature;BMP_pressure;BME280_temperature;BME280_humidity;BME280_pressure;Samples;Min_cycle;Max_cycle;Signal;HPM_P1;HPM_P2
2022/01/04 00:00:45;;;;;;;40.53;4.93;;;7.30;99.90;;;;;;5134778;27;20356;-68
2022/01/04 00:03:11;;;;;;;32.50;4.97;;;7.10;99.90;;;;;;5134787;27;20166;-68
2022/01/04 00:05:38;;;;;;;32.20;5.05;;;7.70;99.90;;;;;;5134746;27;20424;-68
2022/01/04 00:08:08;;;;;;;35.97;4.85;;;7.40;99.90;;;;;;5134391;27;20043;-68
2022/01/04 00:10:34;;;;;;;29.98;4.85;;;;;;;;;;5134300;27;20463;-68
2022/01/04 00:15:44;;;;;;;27.40;4.38;;;7.20;99.90;;;;;;5134699;27;19943;-68
2022/01/04 00:18:11;;;;;;;33.72;4.30;;;7.30;99.90;;;;;;5134594;27;20051;-68
2022/01/04 00:20:37;;;;;;;33.08;5.38;;;7.20;99.90;;;;;;5116144;27;20039;-68
2022/01/04 00:23:03;;;;;;;43.30;5.88;;;7.60;99.90;;;;;;5134313;27;20043;-68
2022/01/04 00:25:29;;;;;;;33.10;4.55;;;7.50;99.90;;;;;;5134434;27;20483;-67
2022/01/04 00:27:55;;;;;;;30.85;4.90;;;7.50;99.90;;;;;;5116318;27;20049;-68
2022/01/04 00:30:21;;;;;;;31.98;5.30;;;7.50;99.90;;;;;;5134208;28;20212;-68
2022/01/04 00:32:47;;;;;;;42.03;6.30;;;7.40;99.90;;;;;;5134904;28;20065;-67
2022/01/04 00:35:12;;;;;;;37.63;5.28;;;7.40;99.90;;;;;;5134610;28;20050;-68
2022/01/04 00:37:38;;;;;;;30.98;4.45;;;7.60;99.90;;;;;;5134125;28;20042;-68
2022/01/04 00:40:05;;;;;;;30.77;4.72;;;7.30;99.90;;;;;;5134508;28;20042;-67
2022/01/04 00:42:31;;;;;;;24.42;4.40;;;7.40;99.90;;;;;;5134270;28;20047;-67
2022/01/04 00:44:57;;;;;;;38.47;4.85;;;7.50;99.90;;;;;;5098929;28;20054;-67
2022/01/04 00:47:39;;;;;;;36.50;4.88;;;7.40;99.90;;;;;;5134193;28;20130;-68
2022/01/04 00:50:05;;;;;;;36.25;5.35;;;7.70;99.90;;;;;;5134262;28;20162;-67
2022/01/04 00:52:30;;;;;;;28.77;5.28;;;7.30;99.90;;;;;;5136087;27;20118;-67
2022/01/04 00:54:56;;;;;;;32.20;5.15;;;7.40;99.90;;;;;;5138399;27;20543;-67
2022/01/04 00:57:22;;;;;;;35.30;5.60;;;7.40;99.90;;;;;;5120070;27;20071;-67
2022/01/04 00:59:47;;;;;;;41.22;5.80;;;7.50;99.90;;;;;;5138039;27;20047;-68
2022/01/04 01:02:13;;;;;;;31.13;5.82;;;7.70;99.90;;;;;;5120343;27;20039;-67
2022/01/04 01:04:39;;;;;;;43.88;5.93;;;7.30;99.90;;;;;;5138294;27;20047;-67
2022/01/04 01:07:04;;;;;;;31.55;5.55;;;7.50;99.90;;;;;;5137814;27;20046;-68
2022/01/04 01:09:35;;;;;;;37.13;5.88;;;9.50;99.90;;;;;;5119990;27;20043;-67
2022/01/04 01:12:01;;;;;;;38.33;5.63;;;7.40;99.90;;;;;;5137654;27;20039;-68
2022/01/04 01:14:26;;;;;;;38.30;6.35;;;7.40;99.90;;;;;;5137985;27;20149;-68
2022/01/04 01:16:52;;;;;;;43.28;6.28;;;7.50;99.90;;;;;;5119532;27;20051;-68
2022/01/04 01:19:18;;;;;;;36.45;6.47;;;7.50;99.90;;;;;;5137884;27;20053;-67
2022/01/04 01:21:44;;;;;;;37.55;6.00;;;7.50;99.90;;;;;;5137881;27;20043;-67
2022/01/04 01:24:10;;;;;;;30.48;5.28;;;7.40;99.90;;;;;;5119499;27;20043;-67
2022/01/04 01:26:35;;;;;;;;;;;7.60;99.90;;;;;;5138161;27;20050;-67
2022/01/04 01:29:01;;;;;;;37.88;6.25;;;7.40;99.90;;;;;;5137412;27;19923;-67
2022/01/04 01:31:28;;;;;;;37.33;5.05;;;7.50;99.90;;;;;;5137519;27;20058;-67
2022/01/04 01:33:54;;;;;;;34.17;6.13;;;7.20;99.90;;;;;;5137315;27;20047;-67
2022/01/04 01:36:19;;;;;;;45.78;7.13;;;7.20;99.90;;;;;;5137246;27;20087;-67
2022/01/04 01:38:45;;;;;;;33.13;6.85;;;7.40;99.90;;;;;;5137604;27;20047;-67
2022/01/04 01:41:11;;;;;;;42.42;7.13;;;7.70;99.90;;;;;;5138073;27;20075;-67
2022/01/04 01:43:36;;;;;;;46.17;7.57;;;7.50;99.90;;;;;;5119168;27;20134;-66
2022/01/04 01:46:02;;;;;;;58.08;7.95;;;7.60;99.90;;;;;;5137668;27;20045;-66
2022/01/04 01:48:29;;;;;;;40.03;7.57;;;7.50;99.90;;;;;;5137109;27;20391;-66
2022/01/04 01:50:55;;;;;;;34.45;7.10;;;7.20;99.90;;;;;;5137270;27;20050;-66
2022/01/04 01:53:21;;;;;;;54.05;9.90;;;7.50;99.90;;;;;;5137393;27;20390;-66
2022/01/04 01:55:47;;;;;;;41.90;7.68;;;7.50;99.90;;;;;;5137198;27;20043;-67
2022/01/04 01:58:13;;;;;;;45.70;8.48;;;7.30;99.90;;;;;;5137489;27;20088;-66
2022/01/04 02:00:39;;;;;;;40.40;8.77;;;7.60;99.90;;;;;;5118865;27;20483;-66
2022/01/04 02:03:04;;;;;;;48.13;7.93;;;7.60;99.90;;;;;;5136339;27;20046;-66
2022/01/04 02:05:31;;;;;;;36.17;7.95;;;7.30;99.90;;;;;;5136985;27;20122;-66
2022/01/04 02:07:59;;;;;;;43.67;8.10;;;7.70;99.90;;;;;;5136935;27;20053;-66
2022/01/04 02:10:25;;;;;;;44.83;8.45;;;7.30;99.90;;;;;;5136980;27;20083;-66
2022/01/04 02:12:50;;;;;;;48.25;9.40;;;7.30;99.90;;;;;;5118677;27;20580;-66
2022/01/04 02:15:21;;;;;;;55.30;9.68;;;7.50;99.90;;;;;;5118691;27;20043;-65
2022/01/04 02:17:47;;;;;;;49.38;9.18;;;7.60;99.90;;;;;;5136673;27;20084;-65
2022/01/04 02:20:15;;;;;;;56.20;9.43;;;7.80;99.90;;;;;;5118397;27;20083;-66
2022/01/04 02:22:41;;;;;;;48.33;8.85;;;7.50;99.90;;;;;;5136849;27;20065;-65
2022/01/04 02:25:08;;;;;;;55.92;8.85;;;7.80;99.90;;;;;;5118524;27;20043;-66
2022/01/04 02:27:34;;;;;;;;;;;7.60;99.90;;;;;;5119009;27;20042;-65
2022/01/04 02:30:00;;;;;;;53.22;8.20;;;7.60;99.90;;;;;;5118151;27;19923;-65
2022/01/04 02:32:26;;;;;;;44.97;7.47;;;7.30;99.90;;;;;;5136412;27;20055;-65
2022/01/04 02:34:52;;;;;;;45.55;6.80;;;7.80;99.90;;;;;;5136248;27;20049;-65
2022/01/04 02:37:24;;;;;;;45.33;6.75;;;7.70;99.90;;;;;;5136639;27;20043;-65
2022/01/04 02:39:51;;;;;;;41.75;6.75;;;7.50;99.90;;;;;;5136338;27;20039;-65
2022/01/04 02:42:17;;;;;;;47.47;6.72;;;;;;;;;;5118139;27;20073;-66
2022/01/04 02:44:43;;;;;;;;;;;7.70;99.90;;;;;;5136690;27;20399;-65
2022/01/04 02:47:09;;;;;;;45.60;6.63;;;7.50;99.90;;;;;;5135952;27;20006;-66
2022/01/04 02:49:35;;;;;;;44.17;6.70;;;7.60;99.90;;;;;;5136172;27;20043;-65
2022/01/04 02:52:00;;;;;;;41.58;6.22;;;7.50;99.90;;;;;;5135666;27;20039;-65
2022/01/04 02:54:26;;;;;;;39.15;6.10;;;7.70;99.90;;;;;;5135996;27;20131;-65
2022/01/04 02:56:52;;;;;;;41.83;6.32;;;7.60;99.90;;;;;;5135986;27;20042;-65
2022/01/04 02:59:17;;;;;;;37.40;6.60;;;7.60;99.90;;;;;;5136281;27;20540;-65
2022/01/04 03:01:43;;;;;;;51.20;7.93;;;7.60;99.90;;;;;;5135685;27;20035;-66
2022/01/04 03:04:09;;;;;;;42.78;7.65;;;7.70;99.90;;;;;;5135926;27;20070;-65
2022/01/04 03:06:35;;;;;;;44.92;8.80;;;7.70;99.90;;;;;;5135843;27;20039;-66
2022/01/04 03:09:03;;;;;;;46.08;8.75;;;7.90;99.90;;;;;;5117759;27;20043;-66
2022/01/04 03:11:28;;;;;;;54.60;10.75;;;7.90;99.90;;;;;;5135622;27;20046;-65
2022/01/04 03:13:54;;;;;;;52.15;10.80;;;7.60;99.90;;;;;;5116923;27;20047;-66
2022/01/04 03:16:20;;;;;;;45.03;10.18;;;7.60;99.90;;;;;;5134876;27;20051;-65
2022/01/04 03:19:03;;;;;;;43.00;11.48;;;7.40;99.90;;;;;;5135632;27;20050;-65
2022/01/04 03:21:39;;;;;;;46.38;11.57;;;7.50;99.90;;;;;;5135718;27;20052;-65
2022/01/04 03:24:06;;;;;;;56.22;13.35;;;7.40;99.90;;;;;;5135649;27;20042;-66
2022/01/04 03:26:32;;;;;;;59.92;13.65;;;;;;;;;;5135499;27;20047;-65
2022/01/04 03:28:58;;;;;;;57.17;13.50;;;7.60;99.90;;;;;;5135461;27;20095;-66
2022/01/04 03:31:26;;;;;;;52.80;14.25;;;7.50;99.90;;;;;;5134927;27;20059;-66
2022/01/04 03:33:52;;;;;;;68.88;14.20;;;7.50;99.90;;;;;;5116993;27;20129;-66
2022/01/04 03:36:20;;;;;;;60.60;15.70;;;7.50;99.90;;;;;;5135280;27;20130;-66
2022/01/04 03:38:48;;;;;;;67.68;15.68;;;7.50;99.90;;;;;;5135302;27;20047;-66
2022/01/04 03:41:18;;;;;;;62.60;14.75;;;7.50;99.90;;;;;;5135157;27;20047;-66
2022/01/04 03:43:44;;;;;;;57.75;14.35;;;7.50;99.90;;;;;;5135235;27;20047;-66
2022/01/04 03:46:10;;;;;;;44.55;12.68;;;7.40;99.90;;;;;;5116489;27;20096;-66
2022/01/04 03:48:37;;;;;;;49.42;13.65;;;7.30;99.90;;;;;;5135038;27;20043;-65
2022/01/04 03:51:03;;;;;;;;;;;7.50;99.90;;;;;;5135363;27;20070;-66
2022/01/04 03:53:29;;;;;;;46.65;12.27;;;7.60;99.90;;;;;;5134932;27;19972;-65
2022/01/04 03:55:54;;;;;;;62.42;13.13;;;7.40;99.90;;;;;;5135015;27;20039;-66
2022/01/04 03:58:20;;;;;;;66.10;14.00;;;7.60;99.90;;;;;;5134856;27;20039;-66
2022/01/04 04:00:46;;;;;;;54.70;14.05;;;7.60;99.90;;;;;;5134515;27;20509;-66
2022/01/04 04:03:12;;;;;;;;;;;7.40;99.90;;;;;;5135182;27;20087;-66
2022/01/04 04:05:38;;;;;;;50.40;12.75;;;7.50;99.90;;;;;;5134747;27;20009;-66
2022/01/04 04:08:04;;;;;;;66.32;13.75;;;7.50;99.90;;;;;;5134405;27;20047;-66
2022/01/04 04:10:30;;;;;;;51.33;12.68;;;7.60;99.90;;;;;;5134709;27;20046;-66
2022/01/04 04:12:55;;;;;;;56.97;12.90;;;7.60;99.90;;;;;;5134678;27;20043;-66
2022/01/04 04:15:21;;;;;;;63.67;13.63;;;7.60;99.90;;;;;;5116110;27;20414;-66
2022/01/04 04:17:47;;;;;;;64.40;12.75;;;7.70;99.90;;;;;;5134671;27;20042;-66
2022/01/04 04:20:13;;;;;;;52.08;12.57;;;7.50;99.90;;;;;;5134578;27;20047;-66
2022/01/04 04:22:40;;;;;;;66.00;11.45;;;7.60;99.90;;;;;;5099190;27;20047;-66
2022/01/04 04:25:06;;;;;;;;;;;7.30;99.90;;;;;;5134900;27;20043;-67
2022/01/04 04:27:31;;;;;;;52.45;11.80;;;7.60;99.90;;;;;;5134313;27;20026;-67
2022/01/04 04:29:57;;;;;;;66.63;12.55;;;7.40;99.90;;;;;;5133976;27;20089;-67
2022/01/04 04:32:23;;;;;;;73.38;13.07;;;7.40;99.90;;;;;;5116025;28;20054;-66
2022/01/04 04:34:48;;;;;;;49.42;11.38;;;7.30;99.90;;;;;;5115924;28;20043;-66
2022/01/04 04:37:14;;;;;;;58.17;11.70;;;7.80;99.90;;;;;;5134317;28;20088;-67
2022/01/04 04:39:40;;;;;;;52.13;12.48;;;7.70;99.90;;;;;;5134364;28;20047;-66
2022/01/04 04:42:06;;;;;;;46.78;11.30;;;7.50;99.90;;;;;;5134303;28;20043;-66
2022/01/04 04:44:31;;;;;;;61.95;12.98;;;7.40;99.90;;;;;;5134069;28;20055;-66
2022/01/04 04:46:57;;;;;;;61.22;12.32;;;7.50;99.90;;;;;;5134008;28;20043;-66
2022/01/04 04:49:23;;;;;;;65.90;14.38;;;7.80;99.90;;;;;;5134190;28;20043;-66
2022/01/04 04:51:49;;;;;;;57.63;12.38;;;7.50;99.90;;;;;;5134198;28;20364;-66
2022/01/04 04:54:15;;;;;;;50.03;12.15;;;7.50;99.90;;;;;;5134239;28;20043;-66
2022/01/04 04:56:40;;;;;;;59.28;11.40;;;7.40;99.90;;;;;;5134161;28;20043;-66
2022/01/04 04:59:07;;;;;;;54.58;11.43;;;7.30;99.90;;;;;;5115552;28;20086;-66
2022/01/04 05:01:34;;;;;;;52.97;10.75;;;7.70;99.90;;;;;;5134152;28;20435;-67
2022/01/04 05:03:59;;;;;;;51.45;10.45;;;7.40;99.90;;;;;;5134158;28;20093;-66
2022/01/04 05:06:26;;;;;;;51.58;9.65;;;7.50;99.90;;;;;;5134073;28;20086;-66
2022/01/04 05:08:51;;;;;;;;;;;7.50;99.90;;;;;;5134701;28;20067;-66
2022/01/04 05:11:17;;;;;;;57.78;9.18;;;7.40;99.90;;;;;;5134022;28;19919;-66
2022/01/04 05:13:43;;;;;;;50.33;8.32;;;7.50;99.90;;;;;;5133514;28;20126;-67
2022/01/04 05:16:08;;;;;;;54.97;9.23;;;7.70;99.90;;;;;;5115774;28;20043;-66
2022/01/04 05:18:34;;;;;;;47.35;8.25;;;7.60;99.90;;;;;;5115735;28;20536;-66
2022/01/04 05:21:00;;;;;;;42.25;7.47;;;7.80;99.90;;;;;;5133997;28;20039;-66
2022/01/04 05:23:26;;;;;;;44.70;7.82;;;7.50;99.90;;;;;;5133631;28;20047;-66
2022/01/04 05:25:51;;;;;;;63.55;8.02;;;7.60;99.90;;;;;;5133940;28;20051;-66
2022/01/04 05:28:17;;;;;;;41.88;7.95;;;7.50;99.90;;;;;;5133596;28;20187;-67
2022/01/04 05:30:43;;;;;;;49.13;8.18;;;7.70;99.90;;;;;;5133828;28;20047;-66
2022/01/04 05:33:08;;;;;;;54.65;8.27;;;7.50;99.90;;;;;;5133928;28;20047;-66
2022/01/04 05:35:34;;;;;;;43.65;7.70;;;7.80;99.90;;;;;;5115760;28;20063;-66
2022/01/04 05:38:00;;;;;;;53.90;7.78;;;7.50;99.90;;;;;;5134949;27;20100;-66
2022/01/04 05:40:26;;;;;;;54.75;8.00;;;7.60;99.90;;;;;;5119185;27;20047;-66
2022/01/04 05:42:52;;;;;;;47.00;8.48;;;7.30;99.90;;;;;;5137496;27;20494;-66
2022/01/04 05:45:17;;;;;;;52.05;9.48;;;7.60;99.90;;;;;;5137697;27;20075;-66
2022/01/04 05:47:43;;;;;;;43.65;9.07;;;7.60;99.90;;;;;;5119233;27;20043;-66
2022/01/04 05:50:09;;;;;;;48.90;9.50;;;7.60;99.90;;;;;;5137428;27;20043;-66
2022/01/04 05:52:35;;;;;;;46.30;9.25;;;7.40;99.90;;;;;;5137274;27;20129;-66
2022/01/04 05:55:01;;;;;;;38.53;8.23;;;7.40;99.90;;;;;;5136967;27;20093;-66
2022/01/04 05:57:27;;;;;;;20.88;4.68;;;7.50;99.90;;;;;;5137498;27;20429;-66
2022/01/04 05:59:52;;;;;;;16.35;3.72;;;7.70;99.90;;;;;;5137446;27;20039;-66
2022/01/04 06:02:18;;;;;;;15.10;2.03;;;7.30;99.90;;;;;;5119000;27;20058;-66
2022/01/04 06:04:44;;;;;;;10.77;1.95;;;7.30;99.90;;;;;;5118750;27;20122;-66
2022/01/04 06:07:09;;;;;;;10.32;1.90;;;7.40;99.90;;;;;;5118452;27;20470;-66
2022/01/04 06:09:42;;;;;;;8.35;1.98;;;7.10;99.90;;;;;;5136635;27;20047;-66
2022/01/04 06:15:04;;;;;;;8.95;2.42;;;7.00;99.90;;;;;;5104651;27;20047;-66
2022/01/04 06:17:32;;;;;;;14.10;2.88;;;7.10;99.90;;;;;;5136585;27;20475;-65
2022/01/04 06:19:59;;;;;;;16.35;2.78;;;7.00;99.90;;;;;;5136998;27;20058;-65
2022/01/04 06:22:25;;;;;;;;;;;7.60;99.90;;;;;;5137213;27;20126;-66
2022/01/04 06:24:52;;;;;;;15.70;2.78;;;6.90;99.90;;;;;;5136418;27;19930;-65
2022/01/04 06:27:18;;;;;;;11.82;3.17;;;7.50;99.90;;;;;;5136648;27;20043;-65
2022/01/04 06:29:44;;;;;;;;;;;7.60;99.90;;;;;;5137019;27;20054;-65
2022/01/04 06:32:11;;;;;;;17.73;3.05;;;7.10;99.90;;;;;;5136616;27;19919;-65
2022/01/04 06:34:38;;;;;;;19.27;3.97;;;7.40;99.90;;;;;;5136527;27;20050;-65
2022/01/04 06:37:05;;;;;;;23.80;3.55;;;6.90;99.90;;;;;;5136589;27;20096;-65
2022/01/04 06:39:31;;;;;;;28.52;5.00;;;7.40;99.90;;;;;;5136081;27;20112;-66
2022/01/04 06:41:57;;;;;;;29.38;4.25;;;7.30;99.90;;;;;;5136396;27;20046;-66
2022/01/04 06:44:23;;;;;;;31.98;4.43;;;7.30;99.90;;;;;;5118081;27;20051;-66
2022/01/04 06:46:49;;;;;;;29.85;4.57;;;;;;;;;;5101423;27;20547;-66
2022/01/04 06:49:15;;;;;;;;;;;7.50;99.90;;;;;;5118267;27;20043;-66
2022/01/04 06:51:42;;;;;;;22.67;4.55;;;;;;;;;;5136084;27;19938;-66
2022/01/04 06:54:10;;;;;;;22.63;4.05;;;7.60;99.90;;;;;;5135792;27;20544;-66
2022/01/04 06:56:36;;;;;;;21.50;4.18;;;7.30;99.90;;;;;;5136051;27;20055;-66
2022/01/04 06:59:03;;;;;;;24.08;4.03;;;7.20;99.90;;;;;;5136077;27;20452;-66
2022/01/04 07:01:29;;;;;;;19.63;3.85;;;7.00;99.90;;;;;;5117835;27;20047;-66
2022/01/04 07:03:54;;;;;;;25.25;4.53;;;7.50;99.90;;;;;;5135973;27;20172;-66
2022/01/04 07:06:20;;;;;;;20.90;3.40;;;7.20;99.90;;;;;;5117815;27;20043;-66
2022/01/04 07:08:46;;;;;;;20.35;3.65;;;7.00;99.90;;;;;;5135640;27;20135;-66
2022/01/04 07:11:11;;;;;;;14.20;3.25;;;7.20;99.90;;;;;;5135686;27;20181;-66
2022/01/04 07:13:37;;;;;;;17.60;2.95;;;7.10;99.90;;;;;;5117319;27;20051;-66
2022/01/04 07:16:03;;;;;;;23.23;3.25;;;7.00;99.90;;;;;;5135912;27;20062;-66
2022/01/04 07:18:29;;;;;;;19.15;3.03;;;7.10;99.90;;;;;;5100563;27;20092;-66
2022/01/04 07:20:54;;;;;;;22.50;3.28;;;7.30;99.90;;;;;;5117265;27;20046;-66
2022/01/04 07:23:22;;;;;;;16.60;2.70;;;7.00;99.90;;;;;;5135183;27;20050;-66
2022/01/04 07:25:48;;;;;;;24.77;3.05;;;7.00;99.90;;;;;;5117460;27;20744;-66
2022/01/04 07:28:14;;;;;;;25.80;3.58;;;6.70;99.90;;;;;;5100343;27;20122;-65
2022/01/04 07:30:40;;;;;;;26.83;3.65;;;7.20;99.90;;;;;;5135212;27;20444;-65
2022/01/04 07:33:05;;;;;;;29.55;3.85;;;7.20;99.90;;;;;;5116848;27;20063;-66
2022/01/04 07:35:31;;;;;;;22.65;3.70;;;7.30;99.90;;;;;;5135288;27;20091;-67
2022/01/04 07:37:57;;;;;;;32.70;4.22;;;;;;;;;;5135360;27;20050;-66
2022/01/04 07:40:23;;;;;;;26.13;4.65;;;7.30;99.90;;;;;;5116929;27;20039;-67
2022/01/04 07:42:49;;;;;;;35.90;4.82;;;;;;;;;;5135186;27;20035;-66
2022/01/04 07:45:15;;;;;;;31.77;4.63;;;7.20;99.90;;;;;;5146421;27;20490;-69
2022/01/04 07:47:41;;;;;;;;;;;7.10;99.90;;;;;;5153399;27;20098;-67
2022/01/04 07:50:08;;;;;;;28.10;4.72;;;7.00;99.90;;;;;;5152639;27;20384;-67
2022/01/04 07:52:34;;;;;;;40.40;5.57;;;7.30;99.90;;;;;;5152257;27;20046;-66
2022/01/04 07:55:01;;;;;;;37.70;4.78;;;7.20;99.90;;;;;;5153336;27;20110;-67
2022/01/04 07:57:26;;;;;;;40.70;5.72;;;7.30;99.90;;;;;;5152836;27;20739;-67
2022/01/04 07:59:52;;;;;;;20.95;3.63;;;7.50;99.90;;;;;;5151803;27;20038;-69
2022/01/04 08:02:18;;;;;;;22.50;5.47;;;7.30;99.90;;;;;;5151567;27;20046;-65
2022/01/04 08:04:43;;;;;;;17.40;3.50;;;7.50;99.90;;;;;;5153240;27;20509;-66
2022/01/04 08:07:09;;;;;;;9.50;2.25;;;6.80;99.90;;;;;;5151809;27;20042;-68
2022/01/04 08:09:35;;;;;;;13.18;3.72;;;7.00;99.90;;;;;;5114098;27;20071;-67
2022/01/04 08:12:00;;;;;;;17.92;3.40;;;7.00;99.90;;;;;;5151233;27;20046;-68
2022/01/04 08:14:26;;;;;;;17.08;2.22;;;6.70;99.90;;;;;;5133683;27;20074;-67
2022/01/04 08:16:53;;;;;;;8.25;1.55;;;6.50;99.90;;;;;;5152817;27;20678;-68
2022/01/04 08:19:19;;;;;;;16.10;1.52;;;6.40;99.90;;;;;;5152958;27;20053;-67
2022/01/04 08:21:44;;;;;;;15.55;1.48;;;6.50;99.90;;;;;;5114375;27;20031;-69
2022/01/04 08:24:10;;;;;;;8.65;1.20;;;;;;;;;;5134293;27;20043;-67
2022/01/04 08:26:36;;;;;;;9.70;1.33;;;6.80;99.90;;;;;;5152929;27;20095;-68
2022/01/04 08:29:02;;;;;;;6.85;1.27;;;6.00;99.90;;;;;;5151811;27;20050;-67
2022/01/04 08:31:28;;;;;;;6.00;1.20;;;6.50;99.90;;;;;;5132609;27;20050;-67
2022/01/04 08:33:54;;;;;;;8.55;1.25;;;6.40;99.90;;;;;;5152329;27;20050;-68
2022/01/04 08:36:27;;;;;;;11.07;1.52;;;6.40;99.90;;;;;;5133411;27;20456;-68
2022/01/04 08:38:52;;;;;;;10.63;2.17;;;6.30;99.90;;;;;;5134325;27;20049;-68
2022/01/04 08:41:18;;;;;;;10.10;1.30;;;6.40;99.90;;;;;;5151737;27;20039;-67
2022/01/04 08:43:45;;;;;;;8.35;1.10;;;6.30;99.90;;;;;;5151608;27;20144;-68
2022/01/04 08:46:11;;;;;;;8.77;1.30;;;6.70;99.90;;;;;;5152595;27;20118;-68
2022/01/04 08:48:37;;;;;;;9.35;1.50;;;6.60;99.90;;;;;;5130615;27;20091;-71
2022/01/04 08:51:03;;;;;;;5.57;1.05;;;6.30;99.90;;;;;;5149173;27;20038;-68
2022/01/04 08:53:28;;;;;;;7.78;1.15;;;6.20;99.90;;;;;;5151769;27;20082;-72
2022/01/04 08:55:56;;;;;;;7.40;1.10;;;6.30;99.90;;;;;;5150263;27;20051;-70
2022/01/04 08:58:22;;;;;;;7.47;1.35;;;6.30;99.90;;;;;;5151581;27;20051;-71
2022/01/04 09:00:48;;;;;;;8.40;1.15;;;6.10;99.90;;;;;;5132786;27;20067;-69
2022/01/04 09:03:14;;;;;;;9.35;1.08;;;;;;;;;;5152271;27;20053;-69
2022/01/04 09:05:40;;;;;;;7.43;0.90;;;6.20;99.90;;;;;;5151355;27;20129;-67
2022/01/04 09:08:05;;;;;;;4.97;1.13;;;6.20;99.90;;;;;;5150809;27;20125;-67
2022/01/04 09:10:34;;;;;;;8.65;1.00;;;6.40;99.90;;;;;;5150617;27;20043;-68
2022/01/04 09:13:06;;;;;;;10.80;1.95;;;6.50;99.90;;;;;;5153030;27;20390;-69
2022/01/04 09:20:48;;;;;;;;;;;6.10;99.90;;;;;;5151192;27;20553;-72
2022/01/04 09:23:18;;;;;;;5.57;0.90;;;5.90;99.90;;;;;;5137434;27;20013;-68
2022/01/04 09:25:45;;;;;;;5.05;1.00;;;6.00;99.90;;;;;;5156228;27;20084;-71
2022/01/04 09:28:11;;;;;;;4.03;1.20;;;5.80;99.90;;;;;;5154688;27;20049;-68
2022/01/04 09:30:38;;;;;;;5.53;1.58;;;5.90;99.90;;;;;;5135967;27;20051;-69
2022/01/04 09:33:05;;;;;;;6.93;1.20;;;5.50;99.90;;;;;;5156218;27;20209;-67
2022/01/04 09:35:36;;;;;;;5.88;0.95;;;5.80;99.90;;;;;;5154900;27;20117;-74
2022/01/04 09:38:05;;;;;;;3.03;0.70;;;5.40;99.90;;;;;;5151563;27;20138;-68
2022/01/04 09:40:33;;;;;;;7.22;1.00;;;5.60;99.90;;;;;;5135905;27;20054;-68
2022/01/04 09:43:02;;;;;;;6.75;1.00;;;5.40;99.90;;;;;;5154164;27;20050;-68
2022/01/04 09:45:27;;;;;;;6.60;0.95;;;5.60;99.90;;;;;;5136504;27;20070;-68
2022/01/04 09:47:53;;;;;;;4.85;0.90;;;5.80;99.90;;;;;;5136191;27;20043;-68
2022/01/04 09:50:19;;;;;;;4.93;1.25;;;5.60;99.90;;;;;;5153411;27;20047;-68
2022/01/04 09:52:47;;;;;;;5.90;0.80;;;6.00;99.90;;;;;;5155446;27;20042;-67
2022/01/04 09:55:15;;;;;;;4.30;0.77;;;5.80;99.90;;;;;;5154629;27;20126;-68
2022/01/04 09:57:42;;;;;;;4.57;1.00;;;5.70;99.90;;;;;;5135363;27;20074;-68
2022/01/04 10:00:10;;;;;;;7.22;1.00;;;5.80;99.90;;;;;;5153998;27;20046;-70
2022/01/04 10:02:35;;;;;;;7.13;1.50;;;5.90;99.90;;;;;;5154653;27;20133;-68
2022/01/04 10:05:20;;;;;;;4.03;1.10;;;5.70;99.90;;;;;;5135782;27;20129;-69
2022/01/04 10:07:47;;;;;;;10.20;1.20;;;6.20;99.90;;;;;;5154440;27;20135;-67
2022/01/04 10:10:17;;;;;;;5.80;1.15;;;5.70;99.90;;;;;;5153255;27;20047;-67
2022/01/04 10:13:04;;;;;;;6.25;1.08;;;5.80;99.90;;;;;;5154314;27;20094;-68
2022/01/04 10:15:30;;;;;;;;;;;;;;;;;;5135687;27;20039;-68
2022/01/04 10:17:57;;;;;;;7.75;1.30;;;5.80;99.90;;;;;;5118403;27;20013;-67
2022/01/04 10:20:23;;;;;;;10.85;1.45;;;5.60;99.90;;;;;;5136746;27;20352;-67
2022/01/04 10:22:50;;;;;;;9.32;1.40;;;5.40;99.90;;;;;;5118294;27;20053;-67
2022/01/04 10:25:19;;;;;;;13.27;1.95;;;;;;;;;;5136318;27;20043;-68
2022/01/04 10:27:49;;;;;;;11.07;1.50;;;;;;;;;;5136580;27;20073;-68
2022/01/04 10:30:25;;;;;;;6.80;1.40;;;5.20;99.90;;;;;;5143776;27;20483;-67
2022/01/04 10:32:51;;;;;;;6.43;1.75;;;;;;;;;;5154611;27;20478;-68
2022/01/04 10:35:21;;;;;;;8.63;2.08;;;;;;;;;;5156310;27;20050;-68
2022/01/04 10:37:48;;;;;;;12.77;1.70;;;;;;;;;;5138732;27;20051;-67
2022/01/04 10:40:14;;;;;;;7.05;1.55;;;5.60;99.90;;;;;;5156983;27;20042;-68
2022/01/04 10:42:41;;;;;;;8.73;1.40;;;5.70;99.90;;;;;;5157010;27;20038;-68
2022/01/04 10:45:28;;;;;;;6.78;1.00;;;5.90;99.90;;;;;;5156766;27;20100;-68
2022/01/04 10:47:54;;;;;;;5.13;1.10;;;5.60;99.90;;;;;;5156927;27;20053;-68
2022/01/04 10:50:52;;;;;;;3.10;1.30;;;5.70;99.90;;;;;;5156842;27;20042;-67
2022/01/04 10:53:17;;;;;;;;;;;5.60;99.90;;;;;;5137253;27;20094;-68
2022/01/04 10:55:44;;;;;;;5.22;0.90;;;5.80;99.90;;;;;;5156869;27;20362;-68
2022/01/04 10:58:18;;;;;;;3.00;0.90;;;;;;;;;;5138038;27;20524;-67
2022/01/04 11:00:53;;;;;;;3.20;0.93;;;5.90;99.90;;;;;;5156618;27;20050;-69
2022/01/04 11:03:24;;;;;;;4.75;1.20;;;6.20;99.90;;;;;;5156563;27;20078;-68
2022/01/04 11:05:55;;;;;;;3.65;1.05;;;5.70;99.90;;;;;;5156568;27;20043;-68
2022/01/04 11:08:20;;;;;;;8.20;1.13;;;5.60;99.90;;;;;;5156610;27;20043;-68
2022/01/04 11:10:49;;;;;;;8.82;1.25;;;5.80;99.90;;;;;;5156432;27;20114;-68
2022/01/04 11:13:15;;;;;;;8.70;1.20;;;5.90;99.90;;;;;;5138068;27;20039;-68
2022/01/04 11:15:41;;;;;;;9.63;1.30;;;5.80;99.90;;;;;;5156160;27;20053;-68
2022/01/04 11:18:07;;;;;;;7.32;1.13;;;5.80;99.90;;;;;;5156347;27;20042;-68
2022/01/04 11:20:34;;;;;;;9.95;1.15;;;6.00;99.90;;;;;;5156351;27;20390;-68
2022/01/04 11:23:01;;;;;;;10.00;1.40;;;6.00;99.90;;;;;;5156215;27;20495;-68
2022/01/04 11:25:27;;;;;;;;;;;6.40;99.90;;;;;;5138501;27;20054;-68
2022/01/04 11:27:55;;;;;;;4.72;1.00;;;6.10;99.90;;;;;;5156148;27;19919;-73
2022/01/04 11:30:39;;;;;;;9.75;1.83;;;;;;;;;;5137265;27;20049;-69
2022/01/04 11:33:20;;;;;;;5.70;1.20;;;6.30;99.90;;;;;;5120014;27;20141;-68
2022/01/04 11:35:47;;;;;;;7.28;1.30;;;6.30;99.90;;;;;;5155367;27;20079;-67
2022/01/04 11:38:33;;;;;;;9.35;1.48;;;6.60;99.90;;;;;;5155558;27;20478;-68
2022/01/04 11:40:59;;;;;;;8.90;1.40;;;6.20;99.90;;;;;;5156030;27;20096;-68
2022/01/04 11:43:46;;;;;;;10.30;1.85;;;6.40;99.90;;;;;;5155550;27;20478;-68
2022/01/04 11:46:32;;;;;;;8.30;1.65;;;6.10;99.90;;;;;;5154776;27;20176;-68
2022/01/04 11:49:10;;;;;;;7.45;1.50;;;5.90;99.90;;;;;;5155982;27;20046;-68
2022/01/04 11:51:38;;;;;;;8.73;1.35;;;5.80;99.90;;;;;;5155632;27;20046;-68
2022/01/04 11:54:20;;;;;;;10.55;1.67;;;5.90;99.90;;;;;;5155555;27;20056;-69
2022/01/04 11:56:53;;;;;;;6.28;1.10;;;6.10;99.90;;;;;;5155691;27;20067;-68
2022/01/04 11:59:21;;;;;;;7.03;1.52;;;5.80;99.90;;;;;;5136987;27;20539;-69
2022/01/04 12:01:47;;;;;;;5.65;1.25;;;5.90;99.90;;;;;;5139145;27;20078;-69
2022/01/04 12:04:33;;;;;;;5.20;1.15;;;5.90;99.90;;;;;;5135845;27;20045;-69
2022/01/04 12:06:59;;;;;;;5.95;1.30;;;5.60;99.90;;;;;;5136710;27;20085;-68
2022/01/04 12:09:27;;;;;;;9.38;2.05;;;6.00;99.90;;;;;;5155302;27;20078;-70
2022/01/04 12:11:52;;;;;;;6.15;1.15;;;5.90;99.90;;;;;;5155197;27;20039;-74
2022/01/04 12:14:24;;;;;;;14.02;1.65;;;5.80;99.90;;;;;;5155265;27;20102;-68
2022/01/04 12:17:02;;;;;;;13.90;1.38;;;5.90;99.90;;;;;;5155364;27;20051;-68
2022/01/04 12:19:46;;;;;;;12.10;1.42;;;6.20;99.90;;;;;;5155292;27;20046;-69
2022/01/04 12:22:11;;;;;;;12.77;1.85;;;6.00;99.90;;;;;;5155250;27;20046;-69
2022/01/04 12:24:47;;;;;;;8.25;1.13;;;;;;;;;;5155090;27;20046;-69
2022/01/04 12:27:14;;;;;;;10.70;1.67;;;6.00;99.90;;;;;;5154475;27;20046;-69
2022/01/04 12:29:40;;;;;;;9.32;1.63;;;6.00;99.90;;;;;;5155316;27;20039;-68
2022/01/04 12:32:09;;;;;;;9.82;1.40;;;5.90;99.90;;;;;;5155012;27;20378;-69
2022/01/04 12:34:39;;;;;;;6.90;1.17;;;;;;;;;;5153498;27;20057;-69
2022/01/04 12:37:08;;;;;;;7.85;2.00;;;6.10;99.90;;;;;;5153344;27;20042;-69
2022/01/04 12:39:40;;;;;;;8.93;1.52;;;6.10;99.90;;;;;;5154954;27;20038;-69
2022/01/04 12:42:10;;;;;;;19.75;1.98;;;6.00;99.90;;;;;;5155004;27;20054;-69
2022/01/04 12:44:37;;;;;;;12.50;4.75;;;;;;;;;;5155006;27;20077;-68
2022/01/04 12:47:03;;;;;;;;;;;5.90;99.90;;;;;;5156756;27;20053;-69
2022/01/04 12:49:31;;;;;;;5.50;1.50;;;5.80;99.90;;;;;;5159241;27;19919;-69
2022/01/04 12:52:00;;;;;;;10.57;1.35;;;6.00;99.90;;;;;;5158771;27;20483;-69
2022/01/04 12:54:28;;;;;;;7.53;1.52;;;;;;;;;;5159141;27;20053;-69
2022/01/04 12:57:13;;;;;;;10.05;1.30;;;5.90;99.90;;;;;;5158941;27;20398;-69
2022/01/04 12:59:51;;;;;;;7.35;1.38;;;6.00;99.90;;;;;;5158999;27;20053;-69
2022/01/04 13:02:31;;;;;;;4.05;1.38;;;5.90;99.90;;;;;;5140554;27;20053;-69
2022/01/04 13:05:05;;;;;;;4.88;1.10;;;5.80;99.90;;;;;;5159129;27;20046;-69
2022/01/04 13:07:32;;;;;;;5.75;1.23;;;5.90;99.90;;;;;;5140351;27;20123;-69
2022/01/04 13:10:11;;;;;;;4.93;1.65;;;5.60;99.90;;;;;;5158525;27;20038;-71
2022/01/04 13:12:45;;;;;;;9.52;1.60;;;5.80;99.90;;;;;;5139721;27;20084;-77